sensor_id;sensor_type;location;lat;lon;timestamp;pressure;altitude;pressure_sealevel;temperature;humidity
34893;BME280;21106;52.240;20.902;2023-08-01T00:04:53;99271.64;;;21.51;53.39
34893;BME280;21106;52.240;20.902;2023-08-01T00:09:59;99269.94;;;21.49;53.26
34893;BME280;21106;52.240;20.902;2023-08-01T00:15:06;99272.30;;;21.50;53.47
34893;BME280;21106;52.240;20.902;2023-08-01T00:20:12;99264.10;;;21.48;53.57
34893;BME280;21106;52.240;20.902;2023-08-01T00:25:19;99263.42;;;21.45;53.44
34893;BME280;21106;52.240;20.902;2023-08-01T00:30:25;99261.66;;;21.43;53.84
34893;BME280;21106;52.240;20.902;2023-08-01T00:35:31;99258.05;;;21.39;53.76
34893;BME280;21106;52.240;20.902;2023-08-01T00:40:37;99252.73;;;21.36;53.81
34893;BME280;21106;52.240;20.902;2023-08-01T00:45:44;99249.73;;;21.33;54.06
34893;BME280;21106;52.240;20.902;2023-08-01T00:50:51;99242.51;;;21.31;53.85
34893;BME280;21106;52.240;20.902;2023-08-01T00:55:57;99237.38;;;21.32;54.03
34893;BME280;21106;52.240;20.902;2023-08-01T01:01:04;99226.55;;;21.33;53.89
34893;BME280;21106;52.240;20.902;2023-08-01T01:06:16;99217.23;;;21.34;53.93
34893;BME280;21106;52.240;20.902;2023-08-01T01:11:25;99205.94;;;21.33;53.97
34893;BME280;21106;52.240;20.902;2023-08-01T01:16:32;99205.70;;;21.32;53.74
34893;BME280;21106;52.240;20.902;2023-08-01T01:21:40;99199.71;;;21.31;53.90
34893;BME280;21106;52.240;20.902;2023-08-01T01:26:47;99197.16;;;21.31;53.66
34893;BME280;21106;52.240;20.902;2023-08-01T01:31:53;99192.31;;;21.30;53.88
34893;BME280;21106;52.240;20.902;2023-08-01T01:37:00;99191.70;;;21.29;53.86
34893;BME280;21106;52.240;20.902;2023-08-01T01:42:07;99170.53;;;21.28;53.86
34893;BME280;21106;52.240;20.902;2023-08-01T01:47:13;99162.86;;;21.28;53.94
34893;BME280;21106;52.240;20.902;2023-08-01T01:52:19;99159.36;;;21.28;53.84
34893;BME280;21106;52.240;20.902;2023-08-01T01:57:26;99158.32;;;21.29;53.87
34893;BME280;21106;52.240;20.902;2023-08-01T02:02:32;99157.80;;;21.30;53.81
34893;BME280;21106;52.240;20.902;2023-08-01T02:07:38;99145.65;;;21.29;53.70
34893;BME280;21106;52.240;20.902;2023-08-01T02:12:45;99141.20;;;21.27;53.89
34893;BME280;21106;52.240;20.902;2023-08-01T02:17:51;99130.06;;;21.24;53.75
34893;BME280;21106;52.240;20.902;2023-08-01T02:22:57;99127.97;;;21.21;53.88
34893;BME280;21106;52.240;20.902;2023-08-01T02:28:03;99119.20;;;21.16;54.18
34893;BME280;21106;52.240;20.902;2023-08-01T02:33:10;99108.27;;;21.07;54.48
34893;BME280;21106;52.240;20.902;2023-08-01T02:38:16;99096.58;;;20.99;54.83
34893;BME280;21106;52.240;20.902;2023-08-01T02:43:22;99096.14;;;20.88;54.90
34893;BME280;21106;52.240;20.902;2023-08-01T02:48:28;99085.30;;;20.80;55.39
34893;BME280;21106;52.240;20.902;2023-08-01T02:53:36;99081.70;;;20.69;55.56
34893;BME280;21106;52.240;20.902;2023-08-01T02:58:42;99077.70;;;20.63;55.86
34893;BME280;21106;52.240;20.902;2023-08-01T03:03:48;99070.14;;;20.57;56.11
34893;BME280;21106;52.240;20.902;2023-08-01T03:08:54;99061.27;;;20.52;56.16
34893;BME280;21106;52.240;20.902;2023-08-01T03:14:00;99065.75;;;20.47;56.61
34893;BME280;21106;52.240;20.902;2023-08-01T03:19:07;99057.50;;;20.42;56.60
34893;BME280;21106;52.240;20.902;2023-08-01T03:24:14;99056.11;;;20.41;56.58
34893;BME280;21106;52.240;20.902;2023-08-01T03:29:20;99049.41;;;20.37;56.80
34893;BME280;21106;52.240;20.902;2023-08-01T03:34:26;99045.78;;;20.36;56.58
34893;BME280;21106;52.240;20.902;2023-08-01T03:39:32;99033.73;;;20.37;56.62
34893;BME280;21106;52.240;20.902;2023-08-01T03:44:38;99030.96;;;20.39;56.75
34893;BME280;21106;52.240;20.902;2023-08-01T03:49:45;99028.41;;;20.35;56.55
34893;BME280;21106;52.240;20.902;2023-08-01T03:54:55;99030.31;;;20.32;56.75
34893;BME280;21106;52.240;20.902;2023-08-01T04:00:01;99021.21;;;20.27;57.09
34893;BME280;21106;52.240;20.902;2023-08-01T04:05:19;99016.27;;;20.27;56.97
34893;BME280;21106;52.240;20.902;2023-08-01T04:10:25;99013.55;;;20.27;56.90
34893;BME280;21106;52.240;20.902;2023-08-01T04:15:32;99020.33;;;20.25;56.99
34893;BME280;21106;52.240;20.902;2023-08-01T04:20:38;99024.13;;;20.24;57.12
34893;BME280;21106;52.240;20.902;2023-08-01T04:25:45;99017.98;;;20.25;56.99
34893;BME280;21106;52.240;20.902;2023-08-01T04:30:51;99010.17;;;20.27;56.85
34893;BME280;21106;52.240;20.902;2023-08-01T04:35:57;99007.44;;;20.32;56.66
34893;BME280;21106;52.240;20.902;2023-08-01T04:41:03;98997.71;;;20.35;56.61
34893;BME280;21106;52.240;20.902;2023-08-01T04:46:10;98994.14;;;20.40;56.39
34893;BME280;21106;52.240;20.902;2023-08-01T04:51:16;98994.78;;;20.49;56.22
34893;BME280;21106;52.240;20.902;2023-08-01T04:56:22;98995.42;;;20.68;55.91
34893;BME280;21106;52.240;20.902;2023-08-01T05:01:28;98993.83;;;20.85;55.56
34893;BME280;21106;52.240;20.902;2023-08-01T05:06:35;98983.56;;;20.97;55.14
34893;BME280;21106;52.240;20.902;2023-08-01T05:11:41;98979.70;;;21.11;55.03
34893;BME280;21106;52.240;20.902;2023-08-01T05:16:47;98976.80;;;21.36;54.56
34893;BME280;21106;52.240;20.902;2023-08-01T05:21:53;98975.37;;;21.59;53.78
34893;BME280;21106;52.240;20.902;2023-08-01T05:27:00;98966.10;;;21.64;53.30
34893;BME280;21106;52.240;20.902;2023-08-01T05:32:07;98965.98;;;21.65;53.16
34893;BME280;21106;52.240;20.902;2023-08-01T05:37:13;98964.95;;;21.64;53.10
34893;BME280;21106;52.240;20.902;2023-08-01T05:42:19;98958.20;;;21.61;53.23
34893;BME280;21106;52.240;20.902;2023-08-01T05:47:25;98953.78;;;21.59;53.16
34893;BME280;21106;52.240;20.902;2023-08-01T05:52:32;98948.58;;;21.58;53.25
34893;BME280;21106;52.240;20.902;2023-08-01T05:57:38;98952.48;;;21.62;53.45
34893;BME280;21106;52.240;20.902;2023-08-01T06:02:44;98954.42;;;21.67;53.55
34893;BME280;21106;52.240;20.902;2023-08-01T06:07:50;98957.35;;;21.79;53.17
34893;BME280;21106;52.240;20.902;2023-08-01T06:12:57;98947.01;;;21.87;52.93
34893;BME280;21106;52.240;20.902;2023-08-01T06:18:03;98943.90;;;21.94;52.76
34893;BME280;21106;52.240;20.902;2023-08-01T06:23:09;98943.34;;;22.00;52.87
34893;BME280;21106;52.240;20.902;2023-08-01T06:28:15;98934.35;;;22.06;52.47
34893;BME280;21106;52.240;20.902;2023-08-01T06:33:22;98933.46;;;22.14;52.39
34893;BME280;21106;52.240;20.902;2023-08-01T06:38:28;98932.23;;;22.23;52.35
34893;BME280;21106;52.240;20.902;2023-08-01T06:43:34;98925.14;;;22.29;52.12
34893;BME280;21106;52.240;20.902;2023-08-01T06:48:43;98920.83;;;22.36;52.32
34893;BME280;21106;52.240;20.902;2023-08-01T06:53:49;98915.35;;;22.46;52.29
34893;BME280;21106;52.240;20.902;2023-08-01T06:58:55;98912.70;;;22.54;51.85
34893;BME280;21106;52.240;20.902;2023-08-01T07:04:02;98896.95;;;22.62;51.61
34893;BME280;21106;52.240;20.902;2023-08-01T07:09:08;98896.85;;;22.74;51.36
34893;BME280;21106;52.240;20.902;2023-08-01T07:14:17;98893.88;;;22.87;51.32
34893;BME280;21106;52.240;20.902;2023-08-01T07:19:23;98895.25;;;22.98;50.75
34893;BME280;21106;52.240;20.902;2023-08-01T07:24:30;98884.08;;;23.09;50.86
34893;BME280;21106;52.240;20.902;2023-08-01T07:29:36;98876.20;;;23.21;50.40
34893;BME280;21106;52.240;20.902;2023-08-01T07:34:42;98872.78;;;23.32;50.19
34893;BME280;21106;52.240;20.902;2023-08-01T07:39:49;98871.21;;;23.43;49.65
34893;BME280;21106;52.240;20.902;2023-08-01T07:44:56;98869.09;;;23.52;49.44
34893;BME280;21106;52.240;20.902;2023-08-01T07:50:03;98867.70;;;23.57;49.12
34893;BME280;21106;52.240;20.902;2023-08-01T07:55:10;98863.01;;;23.58;49.01
34893;BME280;21106;52.240;20.902;2023-08-01T08:00:16;98863.70;;;23.64;49.31
34893;BME280;21106;52.240;20.902;2023-08-01T08:05:22;98859.18;;;23.71;49.32
34893;BME280;21106;52.240;20.902;2023-08-01T08:10:29;98853.29;;;23.83;49.32
34893;BME280;21106;52.240;20.902;2023-08-01T08:15:35;98845.36;;;23.95;48.81
34893;BME280;21106;52.240;20.902;2023-08-01T08:20:43;98839.82;;;24.07;48.98
34893;BME280;21106;52.240;20.902;2023-08-01T08:25:50;98836.73;;;24.18;48.61
34893;BME280;21106;52.240;20.902;2023-08-01T08:30:59;98839.56;;;24.24;48.46
34893;BME280;21106;52.240;20.902;2023-08-01T08:36:07;98825.77;;;24.30;48.43
34893;BME280;21106;52.240;20.902;2023-08-01T08:41:19;98827.80;;;24.31;48.38
34893;BME280;21106;52.240;20.902;2023-08-01T08:46:28;98835.40;;;24.35;48.41
34893;BME280;21106;52.240;20.902;2023-08-01T08:51:36;98826.07;;;24.40;48.13
34893;BME280;21106;52.240;20.902;2023-08-01T08:56:43;98823.77;;;24.41;48.01
34893;BME280;21106;52.240;20.902;2023-08-01T09:01:50;98825.48;;;24.38;47.97
34893;BME280;21106;52.240;20.902;2023-08-01T09:07:05;98823.45;;;24.35;47.84
34893;BME280;21106;52.240;20.902;2023-08-01T09:12:13;98810.58;;;24.33;47.88
34893;BME280;21106;52.240;20.902;2023-08-01T09:17:20;98796.46;;;24.28;48.11
34893;BME280;21106;52.240;20.902;2023-08-01T09:22:26;98790.90;;;24.31;48.30
34893;BME280;21106;52.240;20.902;2023-08-01T09:27:33;98786.70;;;24.31;48.36
34893;BME280;21106;52.240;20.902;2023-08-01T09:32:39;98784.54;;;24.35;48.18
34893;BME280;21106;52.240;20.902;2023-08-01T09:37:45;98788.73;;;24.36;47.95
34893;BME280;21106;52.240;20.902;2023-08-01T09:42:52;98790.96;;;24.37;48.00
34893;BME280;21106;52.240;20.902;2023-08-01T09:47:59;98791.60;;;24.37;47.89
34893;BME280;21106;52.240;20.902;2023-08-01T09:53:08;98783.81;;;24.40;47.86
34893;BME280;21106;52.240;20.902;2023-08-01T09:58:17;98788.38;;;24.47;47.98
34893;BME280;21106;52.240;20.902;2023-08-01T10:03:23;98781.63;;;24.51;47.73
34893;BME280;21106;52.240;20.902;2023-08-01T10:08:31;98784.87;;;24.49;47.80
34893;BME280;21106;52.240;20.902;2023-08-01T10:13:40;98791.35;;;24.42;48.07
34893;BME280;21106;52.240;20.902;2023-08-01T10:18:47;98797.98;;;24.38;48.65
34893;BME280;21106;52.240;20.902;2023-08-01T10:23:53;98795.41;;;24.37;49.19
34893;BME280;21106;52.240;20.902;2023-08-01T10:29:00;98799.06;;;24.38;49.57
34893;BME280;21106;52.240;20.902;2023-08-01T10:34:13;98794.63;;;24.33;50.05
34893;BME280;21106;52.240;20.902;2023-08-01T10:39:23;98792.46;;;24.22;50.50
34893;BME280;21106;52.240;20.902;2023-08-01T10:44:30;98789.94;;;24.14;51.18
34893;BME280;21106;52.240;20.902;2023-08-01T10:49:41;98792.17;;;24.05;51.66
34893;BME280;21106;52.240;20.902;2023-08-01T10:54:56;98789.04;;;23.99;52.18
34893;BME280;21106;52.240;20.902;2023-08-01T11:00:03;98786.27;;;23.94;52.88
34893;BME280;21106;52.240;20.902;2023-08-01T11:05:14;98781.31;;;23.84;53.16
34893;BME280;21106;52.240;20.902;2023-08-01T11:10:21;98784.95;;;23.74;53.61
34893;BME280;21106;52.240;20.902;2023-08-01T11:15:27;98783.53;;;23.68;54.25
34893;BME280;21106;52.240;20.902;2023-08-01T11:20:38;98778.21;;;23.62;54.39
34893;BME280;21106;52.240;20.902;2023-08-01T11:25:44;98771.96;;;23.53;55.07
34893;BME280;21106;52.240;20.902;2023-08-01T11:30:51;98771.40;;;23.48;55.32
34893;BME280;21106;52.240;20.902;2023-08-01T11:35:57;98769.74;;;23.47;55.42
34893;BME280;21106;52.240;20.902;2023-08-01T11:41:05;98764.36;;;23.45;55.54
34893;BME280;21106;52.240;20.902;2023-08-01T11:46:12;98765.80;;;23.43;56.08
34893;BME280;21106;52.240;20.902;2023-08-01T11:51:18;98756.41;;;23.36;55.83
34893;BME280;21106;52.240;20.902;2023-08-01T11:56:24;98749.41;;;23.27;55.86
34893;BME280;21106;52.240;20.902;2023-08-01T12:01:31;98739.79;;;23.24;55.98
34893;BME280;21106;52.240;20.902;2023-08-01T12:06:37;98728.51;;;23.21;56.34
34893;BME280;21106;52.240;20.902;2023-08-01T12:11:44;98718.21;;;23.21;56.68
34893;BME280;21106;52.240;20.902;2023-08-01T12:16:51;98712.16;;;23.17;56.62
34893;BME280;21106;52.240;20.902;2023-08-01T12:21:57;98698.91;;;23.11;56.86
34893;BME280;21106;52.240;20.902;2023-08-01T12:27:07;98697.82;;;23.04;56.90
34893;BME280;21106;52.240;20.902;2023-08-01T12:32:14;98704.08;;;23.02;56.98
34893;BME280;21106;52.240;20.902;2023-08-01T12:37:20;98702.49;;;23.07;57.03
34893;BME280;21106;52.240;20.902;2023-08-01T12:42:26;98691.51;;;23.10;56.82
34893;BME280;21106;52.240;20.902;2023-08-01T12:47:34;98686.87;;;23.07;56.46
34893;BME280;21106;52.240;20.902;2023-08-01T12:52:42;98681.40;;;23.11;56.49
34893;BME280;21106;52.240;20.902;2023-08-01T12:57:50;98686.42;;;23.18;56.45
34893;BME280;21106;52.240;20.902;2023-08-01T13:02:56;98682.08;;;23.24;56.10
34893;BME280;21106;52.240;20.902;2023-08-01T13:08:02;98671.80;;;23.29;55.90
34893;BME280;21106;52.240;20.902;2023-08-01T13:13:08;98665.36;;;23.36;56.06
34893;BME280;21106;52.240;20.902;2023-08-01T13:18:15;98664.65;;;23.43;55.82
34893;BME280;21106;52.240;20.902;2023-08-01T13:23:22;98665.27;;;23.47;55.61
34893;BME280;21106;52.240;20.902;2023-08-01T13:28:28;98659.14;;;23.43;55.48
34893;BME280;21106;52.240;20.902;2023-08-01T13:33:34;98653.84;;;23.37;55.58
34893;BME280;21106;52.240;20.902;2023-08-01T13:38:40;98664.28;;;23.35;55.69
34893;BME280;21106;52.240;20.902;2023-08-01T13:43:47;98653.11;;;23.37;55.88
34893;BME280;21106;52.240;20.902;2023-08-01T13:48:55;98631.15;;;23.40;55.98
34893;BME280;21106;52.240;20.902;2023-08-01T13:54:01;98632.70;;;23.41;55.88
34893;BME280;21106;52.240;20.902;2023-08-01T13:59:07;98623.86;;;23.40;56.01
34893;BME280;21106;52.240;20.902;2023-08-01T14:04:14;98615.81;;;23.37;56.09
34893;BME280;21106;52.240;20.902;2023-08-01T14:09:20;98609.09;;;23.30;56.34
34893;BME280;21106;52.240;20.902;2023-08-01T14:14:27;98601.45;;;23.21;56.61
34893;BME280;21106;52.240;20.902;2023-08-01T14:19:33;98619.05;;;23.15;57.05
34893;BME280;21106;52.240;20.902;2023-08-01T14:24:39;98618.14;;;23.15;57.01
34893;BME280;21106;52.240;20.902;2023-08-01T14:29:45;98608.01;;;23.19;56.96
34893;BME280;21106;52.240;20.902;2023-08-01T14:34:53;98613.30;;;23.29;56.70
34893;BME280;21106;52.240;20.902;2023-08-01T14:39:59;98608.13;;;23.36;56.48
34893;BME280;21106;52.240;20.902;2023-08-01T14:45:05;98607.08;;;23.43;56.32
34893;BME280;21106;52.240;20.902;2023-08-01T14:50:13;98599.13;;;23.53;56.05
34893;BME280;21106;52.240;20.902;2023-08-01T14:55:19;98602.04;;;23.63;55.81
34893;BME280;21106;52.240;20.902;2023-08-01T15:00:26;98583.84;;;23.63;55.38
34893;BME280;21106;52.240;20.902;2023-08-01T15:05:32;98577.66;;;23.61;54.99
34893;BME280;21106;52.240;20.902;2023-08-01T15:10:38;98578.78;;;23.52;55.60
34893;BME280;21106;52.240;20.902;2023-08-01T15:15:44;98585.65;;;23.31;57.39
34893;BME280;21106;52.240;20.902;2023-08-01T15:20:52;98580.50;;;23.06;58.67
34893;BME280;21106;52.240;20.902;2023-08-01T15:25:58;98578.55;;;22.88;59.73
34893;BME280;21106;52.240;20.902;2023-08-01T15:31:06;98585.95;;;22.71;60.88
34893;BME280;21106;52.240;20.902;2023-08-01T15:36:12;98580.48;;;22.62;61.25
34893;BME280;21106;52.240;20.902;2023-08-01T15:41:18;98575.56;;;22.57;61.47
34893;BME280;21106;52.240;20.902;2023-08-01T15:46:24;98583.05;;;22.55;61.73
34893;BME280;21106;52.240;20.902;2023-08-01T15:51:32;98588.93;;;22.53;62.42
34893;BME280;21106;52.240;20.902;2023-08-01T15:56:38;98587.59;;;22.50;62.32
34893;BME280;21106;52.240;20.902;2023-08-01T16:01:47;98589.02;;;22.49;62.74
34893;BME280;21106;52.240;20.902;2023-08-01T16:06:53;98590.30;;;22.47;63.00
34893;BME280;21106;52.240;20.902;2023-08-01T16:11:59;98581.88;;;22.44;63.23
34893;BME280;21106;52.240;20.902;2023-08-01T16:17:06;98572.83;;;22.39;63.35
34893;BME280;21106;52.240;20.902;2023-08-01T16:22:12;98572.35;;;22.35;63.57
34893;BME280;21106;52.240;20.902;2023-08-01T16:27:18;98582.52;;;22.36;63.48
34893;BME280;21106;52.240;20.902;2023-08-01T16:32:24;98578.93;;;22.44;63.36
34893;BME280;21106;52.240;20.902;2023-08-01T16:37:31;98577.23;;;22.46;63.12
34893;BME280;21106;52.240;20.902;2023-08-01T16:42:38;98578.98;;;22.45;62.81
34893;BME280;21106;52.240;20.902;2023-08-01T16:47:44;98584.55;;;22.43;62.59
34893;BME280;21106;52.240;20.902;2023-08-01T16:52:51;98581.65;;;22.43;62.39
34893;BME280;21106;52.240;20.902;2023-08-01T16:57:58;98576.59;;;22.44;62.17
34893;BME280;21106;52.240;20.902;2023-08-01T17:03:04;98589.20;;;22.39;61.98
34893;BME280;21106;52.240;20.902;2023-08-01T17:08:11;98588.84;;;22.30;61.99
34893;BME280;21106;52.240;20.902;2023-08-01T17:13:17;98591.30;;;22.22;61.97
34893;BME280;21106;52.240;20.902;2023-08-01T17:18:24;98593.96;;;22.20;61.97
34893;BME280;21106;52.240;20.902;2023-08-01T17:23:30;98603.61;;;22.17;61.86
34893;BME280;21106;52.240;20.902;2023-08-01T17:28:37;98606.95;;;22.11;61.87
34893;BME280;21106;52.240;20.902;2023-08-01T17:33:44;98609.27;;;22.06;62.08
34893;BME280;21106;52.240;20.902;2023-08-01T17:38:50;98608.54;;;22.06;61.86
34893;BME280;21106;52.240;20.902;2023-08-01T17:43:58;98614.60;;;22.05;61.93
34893;BME280;21106;52.240;20.902;2023-08-01T17:49:04;98621.05;;;22.03;61.89
34893;BME280;21106;52.240;20.902;2023-08-01T17:54:11;98621.02;;;22.01;61.88
34893;BME280;21106;52.240;20.902;2023-08-01T17:59:17;98622.91;;;21.96;61.98
34893;BME280;21106;52.240;20.902;2023-08-01T18:04:23;98623.84;;;21.89;62.07
34893;BME280;21106;52.240;20.902;2023-08-01T18:09:30;98625.38;;;21.84;62.16
34893;BME280;21106;52.240;20.902;2023-08-01T18:14:36;98633.55;;;21.83;62.31
34893;BME280;21106;52.240;20.902;2023-08-01T18:19:42;98636.64;;;21.85;62.20
34893;BME280;21106;52.240;20.902;2023-08-01T18:24:49;98640.19;;;21.91;62.19
34893;BME280;21106;52.240;20.902;2023-08-01T18:29:56;98637.33;;;21.87;62.15
34893;BME280;21106;52.240;20.902;2023-08-01T18:35:02;98642.46;;;21.86;62.20
34893;BME280;21106;52.240;20.902;2023-08-01T18:40:08;98649.21;;;21.83;62.09
34893;BME280;21106;52.240;20.902;2023-08-01T18:45:14;98651.23;;;21.81;62.26
34893;BME280;21106;52.240;20.902;2023-08-01T18:50:21;98659.36;;;21.79;62.58
34893;BME280;21106;52.240;20.902;2023-08-01T18:55:28;98656.26;;;21.76;62.38
34893;BME280;21106;52.240;20.902;2023-08-01T19:00:44;98659.09;;;21.73;62.45
34893;BME280;21106;52.240;20.902;2023-08-01T19:06:31;98654.81;;;21.72;62.44
34893;BME280;21106;52.240;20.902;2023-08-01T19:11:38;98661.02;;;21.73;62.58
34893;BME280;21106;52.240;20.902;2023-08-01T19:16:45;98664.19;;;21.77;62.39
34893;BME280;21106;52.240;20.902;2023-08-01T19:22:14;98667.86;;;21.78;62.53
34893;BME280;21106;52.240;20.902;2023-08-01T19:27:20;98659.38;;;21.71;62.84
34893;BME280;21106;52.240;20.902;2023-08-01T19:32:27;98668.42;;;21.67;63.11
34893;BME280;21106;52.240;20.902;2023-08-01T19:37:33;98676.60;;;21.67;63.20
34893;BME280;21106;52.240;20.902;2023-08-01T19:42:39;98680.77;;;21.64;63.29
34893;BME280;21106;52.240;20.902;2023-08-01T19:47:45;98691.19;;;21.62;63.43
34893;BME280;21106;52.240;20.902;2023-08-01T19:52:53;98695.37;;;21.58;63.49
34893;BME280;21106;52.240;20.902;2023-08-01T19:58:00;98698.81;;;21.55;63.56
34893;BME280;21106;52.240;20.902;2023-08-01T20:03:06;98702.44;;;21.59;63.63
34893;BME280;21106;52.240;20.902;2023-08-01T20:08:13;98708.05;;;21.58;63.76
34893;BME280;21106;52.240;20.902;2023-08-01T20:13:18;98723.48;;;21.56;63.72
34893;BME280;21106;52.240;20.902;2023-08-01T20:18:25;98739.19;;;21.53;64.16
34893;BME280;21106;52.240;20.902;2023-08-01T20:23:31;98750.69;;;21.50;64.51
34893;BME280;21106;52.240;20.902;2023-08-01T20:28:37;98748.16;;;21.44;64.52
34893;BME280;21106;52.240;20.902;2023-08-01T20:33:44;98746.63;;;21.37;64.63
34893;BME280;21106;52.240;20.902;2023-08-01T20:38:50;98745.78;;;21.34;64.54
34893;BME280;21106;52.240;20.902;2023-08-01T20:43:56;98748.48;;;21.32;64.51
34893;BME280;21106;52.240;20.902;2023-08-01T20:49:02;98754.77;;;21.31;64.73
34893;BME280;21106;52.240;20.902;2023-08-01T20:54:09;98752.11;;;21.30;64.81
34893;BME280;21106;52.240;20.902;2023-08-01T20:59:15;98749.78;;;21.28;64.83
34893;BME280;21106;52.240;20.902;2023-08-01T21:04:22;98754.79;;;21.22;65.20
34893;BME280;21106;52.240;20.902;2023-08-01T21:09:29;98762.90;;;21.17;65.09
34893;BME280;21106;52.240;20.902;2023-08-01T21:14:35;98766.36;;;21.14;65.32
34893;BME280;21106;52.240;20.902;2023-08-01T21:19:41;98759.95;;;21.11;65.48
34893;BME280;21106;52.240;20.902;2023-08-01T21:24:47;98756.70;;;21.07;65.70
34893;BME280;21106;52.240;20.902;2023-08-01T21:29:54;98762.80;;;20.99;65.95
34893;BME280;21106;52.240;20.902;2023-08-01T21:35:00;98760.69;;;20.92;65.87
34893;BME280;21106;52.240;20.902;2023-08-01T21:40:07;98765.02;;;20.87;66.11
34893;BME280;21106;52.240;20.902;2023-08-01T21:45:13;98761.75;;;20.82;66.21
34893;BME280;21106;52.240;20.902;2023-08-01T21:50:19;98764.04;;;20.77;66.59
34893;BME280;21106;52.240;20.902;2023-08-01T21:55:25;98769.49;;;20.71;66.66
34893;BME280;21106;52.240;20.902;2023-08-01T22:00:32;98764.36;;;20.66;66.84
34893;BME280;21106;52.240;20.902;2023-08-01T22:05:38;98749.80;;;20.60;67.07
34893;BME280;21106;52.240;20.902;2023-08-01T22:10:44;98750.25;;;20.56;66.83
34893;BME280;21106;52.240;20.902;2023-08-01T22:15:55;98755.79;;;20.54;66.99
34893;BME280;21106;52.240;20.902;2023-08-01T22:21:02;98767.75;;;20.53;67.24
34893;BME280;21106;52.240;20.902;2023-08-01T22:26:08;98766.89;;;20.52;66.93
34893;BME280;21106;52.240;20.902;2023-08-01T22:31:14;98772.25;;;20.52;67.32
34893;BME280;21106;52.240;20.902;2023-08-01T22:36:21;98775.86;;;20.50;67.23
34893;BME280;21106;52.240;20.902;2023-08-01T22:41:27;98780.05;;;20.44;67.47
34893;BME280;21106;52.240;20.902;2023-08-01T22:46:33;98780.17;;;20.39;67.67
34893;BME280;21106;52.240;20.902;2023-08-01T22:51:39;98785.05;;;20.39;67.73
34893;BME280;21106;52.240;20.902;2023-08-01T22:56:46;98785.92;;;20.38;67.73
34893;BME280;21106;52.240;20.902;2023-08-01T23:01:54;98788.79;;;20.37;67.69
34893;BME280;21106;52.240;20.902;2023-08-01T23:07:00;98790.05;;;20.32;67.96
34893;BME280;21106;52.240;20.902;2023-08-01T23:12:07;98794.61;;;20.29;67.67
34893;BME280;21106;52.240;20.902;2023-08-01T23:17:13;98792.20;;;20.29;67.94
34893;BME280;21106;52.240;20.902;2023-08-01T23:22:19;98799.51;;;20.30;67.97
34893;BME280;21106;52.240;20.902;2023-08-01T23:27:25;98798.67;;;20.31;67.94
34893;BME280;21106;52.240;20.902;2023-08-01T23:32:31;98800.27;;;20.30;67.79
34893;BME280;21106;52.240;20.902;2023-08-01T23:37:38;98797.52;;;20.25;67.85
34893;BME280;21106;52.240;20.902;2023-08-01T23:42:45;98798.11;;;20.22;68.21
34893;BME280;21106;52.240;20.902;2023-08-01T23:47:52;98809.16;;;20.22;68.06
34893;BME280;21106;52.240;20.902;2023-08-01T23:52:58;98806.19;;;20.20;68.12
34893;BME280;21106;52.240;20.902;2023-08-01T23:58:04;98806.38;;;20.19;68.29
